createdAt,value
2022-11-26T00:00:51.966Z,96.95
2022-11-26T00:02:55.237Z,96.45
2022-11-26T00:04:59.527Z,96.71
2022-11-26T00:07:02.595Z,97.61
2022-11-26T00:09:06.725Z,96.50
2022-11-26T00:11:14.787Z,96.47
2022-11-26T00:13:19.187Z,95.71
2022-11-26T00:15:24.272Z,96.22
2022-11-26T00:17:28.701Z,96.56
2022-11-26T00:19:31.785Z,97.35
2022-11-26T00:21:36.349Z,96.91
2022-11-26T00:23:39.377Z,97.31
2022-11-26T00:25:45.638Z,96.38
2022-11-26T00:27:49.336Z,95.99
2022-11-26T00:29:52.530Z,96.00
2022-11-26T00:31:55.688Z,96.10
2022-11-26T00:34:00.099Z,98.02
2022-11-26T00:36:05.617Z,97.69
2022-11-26T00:38:15.465Z,97.59
2022-11-26T00:40:21.373Z,96.35
2022-11-26T00:42:24.682Z,97.84
2022-11-26T00:44:27.861Z,96.65
2022-11-26T00:46:30.990Z,97.88
2022-11-26T00:48:34.050Z,97.63
2022-11-26T00:50:41.003Z,97.14
2022-11-26T00:52:44.488Z,98.98
2022-11-26T00:54:47.682Z,99.05
2022-11-26T00:56:51.242Z,99.15
2022-11-26T00:58:54.304Z,99.25
2022-11-26T01:00:59.290Z,99.39
2022-11-26T01:03:02.790Z,99.31
2022-11-26T01:05:08.503Z,99.04
2022-11-26T01:07:12.914Z,98.11
2022-11-26T01:09:18.779Z,97.27
2022-11-26T01:11:24.115Z,97.68
2022-11-26T01:13:27.690Z,97.33
2022-11-26T01:15:30.628Z,99.03
2022-11-26T01:17:33.844Z,97.65
2022-11-26T01:19:37.180Z,98.30
2022-11-26T01:21:40.478Z,98.17
2022-11-26T01:23:45.036Z,97.82
2022-11-26T01:25:48.661Z,97.70
2022-11-26T01:27:52.007Z,98.46
2022-11-26T01:29:55.096Z,99.54
2022-11-26T01:31:58.212Z,98.53
2022-11-26T01:34:01.375Z,99.48
2022-11-26T01:36:04.613Z,97.77
2022-11-26T01:38:07.642Z,99.21
2022-11-26T01:40:44.199Z,97.71
2022-11-26T01:42:50.826Z,98.63
2022-11-26T01:44:53.870Z,99.43
2022-11-26T01:46:58.409Z,100.00
2022-11-26T01:49:17.178Z,99.67
2022-11-26T01:51:23.737Z,100.00
2022-11-26T01:53:38.228Z,100.00
2022-11-26T01:55:45.981Z,99.13
2022-11-26T01:57:49.646Z,99.90
2022-11-26T01:59:54.727Z,98.74
2022-11-26T02:01:59.784Z,98.64
2022-11-26T02:04:11.957Z,99.32
2022-11-26T02:06:17.503Z,99.05
2022-11-26T02:08:20.571Z,100.00
2022-11-26T02:10:23.725Z,98.99
2022-11-26T02:12:29.415Z,100.00
2022-11-26T02:14:34.247Z,99.18
2022-11-26T02:16:51.893Z,98.54
2022-11-26T02:19:06.894Z,99.16
2022-11-26T02:21:14.909Z,99.42
2022-11-26T02:23:59.377Z,98.36
2022-11-26T02:26:21.221Z,99.59
2022-11-26T02:28:41.736Z,99.68
2022-11-26T02:30:48.656Z,99.35
2022-11-26T02:32:57.475Z,98.79
2022-11-26T02:35:03.496Z,99.57
2022-11-26T02:37:09.397Z,99.92
2022-11-26T02:39:14.740Z,99.39
2022-11-26T02:41:17.861Z,100.00
2022-11-26T02:43:21.047Z,99.75
2022-11-26T02:45:26.977Z,100.00
2022-11-26T02:47:33.335Z,100.00
2022-11-26T02:49:37.731Z,99.52
2022-11-26T02:51:41.436Z,100.00
2022-11-26T02:53:44.939Z,99.31
2022-11-26T02:55:51.117Z,100.00
2022-11-26T02:57:54.262Z,99.04
2022-11-26T02:59:57.595Z,99.71
2022-11-26T03:02:02.339Z,100.00
2022-11-26T03:04:10.271Z,99.42
2022-11-26T03:06:15.465Z,99.75
2022-11-26T03:08:19.066Z,99.37
2022-11-26T03:10:27.416Z,98.67
2022-11-26T03:12:30.758Z,100.00
2022-11-26T03:14:33.778Z,99.67
2022-11-26T03:16:36.978Z,99.57
2022-11-26T03:18:40.052Z,99.43
2022-11-26T03:20:44.501Z,100.00
2022-11-26T03:22:47.599Z,98.80
2022-11-26T03:24:50.748Z,99.58
2022-11-26T03:26:53.990Z,98.97
2022-11-26T03:28:57.032Z,99.24
2022-11-26T03:31:00.058Z,99.34
2022-11-26T03:33:03.152Z,98.13
2022-11-26T03:35:06.807Z,98.38
2022-11-26T03:37:11.177Z,98.39
2022-11-26T03:39:14.343Z,99.52
2022-11-26T03:41:17.351Z,99.03
2022-11-26T03:43:20.455Z,98.72
2022-11-26T03:45:23.838Z,98.79
2022-11-26T03:47:27.309Z,98.55
2022-11-26T03:49:30.543Z,98.90
2022-11-26T03:51:33.937Z,99.41
2022-11-26T03:53:38.396Z,100.00
2022-11-26T03:55:41.470Z,98.58
2022-11-26T03:57:44.491Z,99.71
2022-11-26T03:59:47.656Z,100.00
2022-11-26T04:01:50.769Z,99.53
2022-11-26T04:03:53.834Z,99.75
2022-11-26T04:05:56.839Z,98.80
2022-11-26T04:07:59.787Z,100.00
2022-11-26T04:10:05.383Z,100.00
2022-11-26T04:12:08.521Z,99.19
2022-11-26T04:14:11.766Z,100.00
2022-11-26T04:16:14.800Z,100.00
2022-11-26T04:18:17.898Z,100.00
2022-11-26T04:20:21.009Z,100.00
2022-11-26T04:22:23.997Z,100.00
2022-11-26T04:24:26.960Z,100.00
2022-11-26T04:26:31.340Z,100.00
2022-11-26T04:28:34.493Z,100.00
2022-11-26T04:30:37.477Z,100.00
2022-11-26T04:32:40.932Z,99.94
2022-11-26T04:34:43.921Z,100.00
2022-11-26T04:36:46.919Z,100.00
2022-11-26T04:38:50.006Z,100.00
2022-11-26T04:40:53.105Z,100.00
2022-11-26T04:42:57.529Z,100.00
2022-11-26T04:45:00.706Z,100.00
2022-11-26T04:47:03.848Z,100.00
2022-11-26T04:49:06.993Z,100.00
2022-11-26T04:51:10.004Z,100.00
2022-11-26T04:53:13.042Z,100.00
2022-11-26T04:55:16.419Z,100.00
2022-11-26T04:57:19.471Z,100.00
2022-11-26T04:59:23.902Z,100.00
2022-11-26T05:01:27.175Z,100.00
2022-11-26T05:03:30.311Z,100.00
2022-11-26T05:05:33.332Z,100.00
2022-11-26T05:07:36.433Z,100.00
2022-11-26T05:09:39.523Z,100.00
2022-11-26T05:11:42.574Z,100.00
2022-11-26T05:13:45.544Z,100.00
2022-11-26T05:15:51.080Z,100.00
2022-11-26T05:17:54.092Z,100.00
2022-11-26T05:19:57.121Z,100.00
2022-11-26T05:22:00.158Z,100.00
2022-11-26T05:24:03.192Z,100.00
2022-11-26T05:26:06.476Z,100.00
2022-11-26T05:28:09.573Z,100.00
2022-11-26T05:30:13.692Z,100.00
2022-11-26T05:32:19.062Z,100.00
2022-11-26T05:34:22.367Z,100.00
2022-11-26T05:36:25.523Z,100.00
2022-11-26T05:38:28.543Z,100.00
2022-11-26T05:40:32.664Z,100.00
2022-11-26T05:42:35.758Z,99.93
2022-11-26T05:44:39.496Z,99.88
2022-11-26T05:46:44.229Z,100.00
2022-11-26T05:48:48.778Z,99.95
2022-11-26T05:50:58.348Z,100.00
2022-11-26T05:53:01.362Z,100.00
2022-11-26T05:55:04.652Z,100.00
2022-11-26T05:57:07.752Z,100.00
2022-11-26T05:59:10.949Z,100.00
2022-11-26T06:01:14.065Z,100.00
2022-11-26T06:03:20.341Z,100.00
2022-11-26T06:05:25.148Z,100.00
2022-11-26T06:07:28.191Z,100.00
2022-11-26T06:09:31.270Z,100.00
2022-11-26T06:11:34.311Z,100.00
2022-11-26T06:13:37.340Z,100.00
2022-11-26T06:15:40.530Z,100.00
2022-11-26T06:17:43.599Z,100.00
2022-11-26T06:19:46.708Z,100.00
2022-11-26T06:21:51.204Z,100.00
2022-11-26T06:23:59.058Z,100.00
2022-11-26T06:26:02.832Z,100.00
2022-11-26T06:28:06.422Z,100.00
2022-11-26T06:30:11.411Z,100.00
2022-11-26T06:32:14.579Z,100.00
2022-11-26T06:34:17.958Z,100.00
2022-11-26T06:36:21.071Z,100.00
2022-11-26T06:38:25.623Z,100.00
2022-11-26T06:40:28.610Z,100.00
2022-11-26T06:42:31.655Z,100.00
2022-11-26T06:44:36.732Z,100.00
2022-11-26T06:46:39.985Z,100.00
2022-11-26T06:48:43.081Z,99.78
2022-11-26T06:50:46.135Z,100.00
2022-11-26T06:52:52.247Z,100.00
2022-11-26T06:54:56.743Z,100.00
2022-11-26T06:56:59.795Z,100.00
2022-11-26T06:59:02.972Z,100.00
2022-11-26T07:01:09.627Z,100.00
2022-11-26T07:03:12.725Z,99.69
2022-11-26T07:05:15.887Z,99.54
2022-11-26T07:07:19.336Z,100.00
2022-11-26T07:09:22.352Z,99.39
2022-11-26T07:11:27.735Z,99.28
2022-11-26T07:13:31.102Z,100.00
2022-11-26T07:15:34.177Z,99.71
2022-11-26T07:17:37.211Z,99.62
2022-11-26T07:19:40.471Z,100.00
2022-11-26T07:21:43.580Z,100.00
2022-11-26T07:23:46.760Z,100.00
2022-11-26T07:25:51.014Z,100.00
2022-11-26T07:27:55.384Z,100.00
2022-11-26T07:29:58.393Z,100.00
2022-11-26T07:32:01.538Z,100.00
2022-11-26T07:34:05.085Z,100.00
2022-11-26T07:36:16.416Z,100.00
2022-11-26T07:38:19.731Z,100.00
2022-11-26T07:40:22.830Z,100.00
2022-11-26T07:42:25.925Z,100.00
2022-11-26T07:44:30.385Z,100.00
2022-11-26T07:46:33.600Z,100.00
2022-11-26T07:48:38.212Z,100.00
2022-11-26T07:50:44.623Z,100.00
2022-11-26T07:52:47.900Z,100.00
2022-11-26T07:54:50.901Z,100.00
2022-11-26T07:56:53.924Z,100.00
2022-11-26T07:58:56.918Z,100.00
2022-11-26T08:01:09.109Z,100.00
2022-11-26T08:03:12.182Z,100.00
2022-11-26T08:05:15.661Z,100.00
2022-11-26T08:07:24.647Z,100.00
2022-11-26T08:09:32.055Z,100.00
2022-11-26T08:11:35.528Z,100.00
2022-11-26T08:13:38.633Z,100.00
2022-11-26T08:15:41.743Z,100.00
2022-11-26T08:17:46.199Z,100.00
2022-11-26T08:19:49.265Z,100.00
2022-11-26T08:21:52.514Z,99.54
2022-11-26T08:23:55.966Z,100.00
2022-11-26T08:26:21.558Z,100.00
2022-11-26T08:28:22.731Z,100.00
2022-11-26T08:30:25.897Z,100.00
2022-11-26T08:32:29.050Z,100.00
2022-11-26T08:34:34.036Z,100.00
2022-11-26T08:36:37.055Z,100.00
2022-11-26T08:38:40.584Z,100.00
2022-11-26T08:40:43.604Z,100.00
2022-11-26T08:42:46.623Z,100.00
2022-11-26T08:44:51.347Z,100.00
2022-11-26T08:46:54.387Z,100.00
2022-11-26T08:48:57.497Z,100.00
2022-11-26T08:51:03.236Z,100.00
2022-11-26T08:53:06.282Z,100.00
2022-11-26T08:55:09.818Z,100.00
2022-11-26T08:57:12.888Z,100.00
2022-11-26T08:59:17.484Z,100.00
2022-11-26T09:01:21.936Z,100.00
2022-11-26T09:03:25.179Z,100.00
2022-11-26T09:05:28.317Z,100.00
2022-11-26T09:07:32.766Z,100.00
2022-11-26T09:09:35.984Z,100.00
2022-11-26T09:11:41.174Z,100.00
2022-11-26T09:13:44.232Z,100.00
2022-11-26T09:15:47.500Z,100.00
2022-11-26T09:17:50.616Z,100.00
2022-11-26T09:19:53.640Z,100.00
2022-11-26T09:21:56.836Z,100.00
2022-11-26T09:24:01.621Z,100.00
2022-11-26T09:26:04.638Z,100.00
2022-11-26T09:28:07.689Z,99.93
2022-11-26T09:30:12.825Z,100.00
2022-11-26T09:32:24.431Z,99.48
2022-11-26T09:34:29.169Z,100.00
2022-11-26T09:36:32.238Z,99.01
2022-11-26T09:38:35.831Z,98.79
2022-11-26T09:40:47.179Z,97.79
2022-11-26T09:42:54.255Z,98.34
2022-11-26T09:45:10.329Z,98.79
2022-11-26T09:47:16.914Z,97.92
2022-11-26T09:49:20.123Z,96.59
2022-11-26T09:51:23.338Z,98.07
2022-11-26T09:53:29.038Z,97.90
2022-11-26T09:55:33.631Z,96.51
2022-11-26T09:57:42.152Z,95.35
2022-11-26T09:59:46.661Z,95.41
2022-11-26T10:01:49.785Z,95.35
2022-11-26T10:03:53.634Z,95.88
2022-11-26T10:06:02.345Z,95.75
2022-11-26T10:08:13.802Z,94.93
2022-11-26T10:10:20.314Z,95.81
2022-11-26T10:12:32.472Z,95.74
2022-11-26T10:14:47.855Z,95.54
2022-11-26T10:16:59.260Z,94.52
2022-11-26T10:19:06.378Z,94.10
2022-11-26T10:21:26.908Z,93.56
2022-11-26T10:23:39.012Z,94.64
2022-11-26T10:25:46.122Z,93.47
2022-11-26T10:27:50.062Z,92.53
2022-11-26T10:29:58.497Z,93.78
2022-11-26T10:32:03.964Z,93.97
2022-11-26T10:34:13.310Z,92.94
2022-11-26T10:36:21.935Z,94.34
2022-11-26T10:38:25.031Z,92.88
2022-11-26T10:40:30.888Z,93.31
2022-11-26T10:42:43.122Z,93.22
2022-11-26T10:44:46.958Z,92.64
2022-11-26T10:46:51.531Z,94.12
2022-11-26T10:48:54.636Z,94.20
2022-11-26T10:51:04.825Z,95.24
2022-11-26T10:53:07.977Z,93.20
2022-11-26T10:55:19.264Z,92.90
2022-11-26T10:57:22.480Z,93.14
2022-11-26T10:59:29.888Z,93.62
2022-11-26T11:01:36.438Z,94.07
2022-11-26T11:06:28.883Z,95.14
2022-11-26T11:08:33.624Z,94.12
2022-11-26T11:10:36.757Z,94.93
2022-11-26T11:12:40.538Z,95.21
2022-11-26T11:14:45.728Z,94.43
2022-11-26T11:16:49.222Z,94.96
2022-11-26T11:18:56.642Z,94.30
2022-11-26T11:21:03.125Z,95.14
2022-11-26T11:23:19.128Z,94.08
2022-11-26T11:25:23.769Z,93.69
2022-11-26T11:27:28.662Z,94.26
2022-11-26T11:29:33.984Z,91.18
2022-11-26T11:31:46.694Z,90.51
2022-11-26T11:33:50.629Z,90.94
2022-11-26T11:36:03.338Z,91.66
2022-11-26T11:38:06.595Z,92.38
2022-11-26T11:40:17.491Z,91.40
2022-11-26T11:42:23.692Z,92.08
2022-11-26T11:44:28.699Z,92.33
2022-11-26T11:46:49.528Z,91.49
2022-11-26T11:49:00.561Z,89.02
2022-11-26T11:51:13.362Z,89.91
2022-11-26T11:53:28.429Z,90.02
2022-11-26T11:55:45.432Z,90.95
2022-11-26T11:58:02.666Z,89.50
2022-11-26T12:00:13.427Z,89.15
2022-11-26T12:02:32.048Z,89.17
2022-11-26T12:04:56.503Z,89.13
2022-11-26T12:07:23.486Z,90.91
2022-11-26T12:09:29.519Z,89.94
2022-11-26T12:11:41.578Z,90.41
2022-11-26T12:13:47.788Z,90.11
2022-11-26T12:15:53.951Z,90.42
2022-11-26T12:18:01.876Z,89.89
2022-11-26T12:20:12.181Z,89.03
2022-11-26T12:22:21.504Z,90.11
2022-11-26T12:24:33.424Z,90.26
2022-11-26T12:26:39.415Z,89.50
2022-11-26T12:28:51.317Z,88.45
2022-11-26T12:30:57.778Z,89.96
2022-11-26T12:33:03.793Z,89.19
2022-11-26T12:35:11.891Z,88.99
2022-11-26T12:37:20.876Z,88.52
2022-11-26T12:39:31.641Z,89.10
2022-11-26T12:41:38.444Z,88.93
2022-11-26T12:43:50.242Z,87.83
2022-11-26T12:45:56.581Z,88.83
2022-11-26T12:48:03.043Z,89.83
2022-11-26T12:50:16.628Z,88.82
2022-11-26T12:52:30.417Z,88.40
2022-11-26T12:54:38.014Z,87.95
2022-11-26T12:56:45.465Z,86.75
2022-11-26T12:58:54.586Z,86.74
2022-11-26T13:00:57.667Z,86.60
2022-11-26T13:03:00.753Z,87.35
2022-11-26T13:05:04.122Z,87.52
2022-11-26T13:07:15.426Z,85.45
2022-11-26T13:09:30.578Z,85.50
2022-11-26T13:11:39.945Z,86.90
2022-11-26T13:13:49.383Z,87.17
2022-11-26T13:16:03.149Z,86.80
2022-11-26T13:18:12.265Z,85.28
2022-11-26T13:20:29.297Z,86.97
2022-11-26T13:22:44.866Z,86.10
2022-11-26T13:25:03.403Z,85.06
2022-11-26T13:27:24.261Z,84.01
2022-11-26T13:29:48.221Z,84.18
2022-11-26T13:32:11.289Z,84.23
2022-11-26T13:34:31.087Z,84.75
2022-11-26T13:36:57.239Z,85.66
2022-11-26T13:39:06.339Z,84.95
2022-11-26T13:41:27.083Z,84.11
2022-11-26T13:44:07.361Z,84.50
2022-11-26T13:46:18.979Z,82.88
2022-11-26T13:48:32.182Z,82.75
2022-11-26T13:50:39.016Z,83.10
2022-11-26T13:52:45.752Z,83.44
2022-11-26T13:54:52.174Z,83.02
2022-11-26T13:57:02.430Z,84.43
2022-11-26T13:59:08.616Z,83.83
2022-11-26T14:01:28.395Z,83.97
2022-11-26T14:03:45.611Z,84.26
2022-11-26T14:06:08.592Z,84.10
2022-11-26T14:08:36.436Z,84.82
2022-11-26T14:10:42.661Z,84.94
2022-11-26T14:13:16.288Z,85.22
2022-11-26T14:15:53.176Z,84.02
2022-11-26T14:17:57.013Z,85.00
2022-11-26T14:20:08.377Z,84.05
2022-11-26T14:22:30.331Z,83.90
2022-11-26T14:24:56.545Z,85.05
2022-11-26T14:26:59.752Z,84.60
2022-11-26T14:29:12.856Z,84.66
2022-11-26T14:31:26.732Z,85.46
2022-11-26T14:33:31.176Z,84.82
2022-11-26T14:35:36.296Z,85.00
2022-11-26T14:37:52.899Z,84.99
2022-11-26T14:40:01.874Z,85.08
2022-11-26T14:42:08.178Z,85.91
2022-11-26T14:44:14.945Z,85.28
2022-11-26T14:46:18.732Z,86.14
2022-11-26T14:48:27.201Z,85.10
2022-11-26T14:50:32.461Z,86.29
2022-11-26T14:52:38.985Z,86.54
2022-11-26T14:54:43.382Z,86.67
2022-11-26T14:56:47.698Z,86.18
2022-11-26T14:58:53.529Z,86.29
2022-11-26T15:01:09.852Z,86.91
2022-11-26T15:03:24.029Z,86.12
2022-11-26T15:05:28.842Z,86.35
2022-11-26T15:07:32.651Z,86.40
2022-11-26T15:09:35.710Z,86.37
2022-11-26T15:11:41.635Z,86.58
2022-11-26T15:13:46.294Z,87.12
2022-11-26T15:15:53.416Z,86.10
2022-11-26T15:17:59.471Z,86.55
2022-11-26T15:20:05.419Z,86.97
2022-11-26T15:22:10.066Z,86.98
2022-11-26T15:24:16.140Z,86.52
2022-11-26T15:26:20.502Z,87.23
2022-11-26T15:28:24.435Z,86.73
2022-11-26T15:30:30.317Z,87.14
2022-11-26T15:32:34.674Z,86.29
2022-11-26T15:34:39.403Z,87.42
2022-11-26T15:36:42.837Z,87.49
2022-11-26T15:39:01.323Z,87.06
2022-11-26T15:41:06.991Z,87.29
2022-11-26T15:43:20.382Z,87.29
2022-11-26T15:45:24.485Z,87.71
2022-11-26T15:47:29.084Z,88.07
2022-11-26T15:49:36.188Z,88.64
2022-11-26T15:51:43.495Z,88.13
2022-11-26T15:53:49.356Z,87.60
2022-11-26T15:55:52.994Z,87.97
2022-11-26T15:57:56.404Z,88.51
2022-11-26T16:00:01.605Z,88.56
2022-11-26T16:02:16.603Z,88.42
2022-11-26T16:04:40.031Z,88.75
2022-11-26T16:06:45.640Z,89.01
2022-11-26T16:09:02.353Z,88.63
2022-11-26T16:11:10.188Z,89.22
2022-11-26T16:13:22.823Z,88.84
2022-11-26T16:15:27.238Z,89.07
2022-11-26T16:17:30.418Z,88.38
2022-11-26T16:19:34.073Z,89.39
2022-11-26T16:21:38.294Z,89.05
2022-11-26T16:23:43.424Z,89.79
2022-11-26T16:26:07.361Z,89.88
2022-11-26T16:28:15.891Z,90.24
2022-11-26T16:30:19.590Z,90.57
2022-11-26T16:32:22.848Z,90.37
2022-11-26T16:34:27.544Z,90.70
2022-11-26T16:36:34.914Z,90.56
2022-11-26T16:38:38.126Z,89.93
2022-11-26T16:40:41.181Z,89.85
2022-11-26T16:42:44.275Z,90.52
2022-11-26T16:44:48.808Z,89.63
2022-11-26T16:46:52.791Z,90.59
2022-11-26T16:48:56.366Z,91.54
2022-11-26T16:50:59.487Z,91.09
2022-11-26T16:53:02.591Z,91.14
2022-11-26T16:55:06.582Z,91.45
2022-11-26T16:57:12.801Z,91.21
2022-11-26T16:59:20.518Z,91.83
2022-11-26T17:01:24.984Z,91.58
2022-11-26T17:03:32.785Z,91.69
2022-11-26T17:05:36.164Z,92.28
2022-11-26T17:07:42.541Z,91.77
2022-11-26T17:09:45.800Z,92.93
2022-11-26T17:11:48.893Z,92.65
2022-11-26T17:13:52.142Z,92.23
2022-11-26T17:15:55.615Z,91.55
2022-11-26T17:18:03.480Z,91.99
2022-11-26T17:20:16.411Z,91.40
2022-11-26T17:22:20.292Z,91.50
2022-11-26T17:24:27.043Z,90.34
2022-11-26T17:26:34.457Z,90.02
2022-11-26T17:28:37.528Z,89.81
2022-11-26T17:30:41.122Z,90.18
2022-11-26T17:32:44.300Z,89.21
2022-11-26T17:34:49.042Z,89.67
2022-11-26T17:36:52.165Z,90.77
2022-11-26T17:38:55.279Z,91.82
2022-11-26T17:40:58.271Z,90.53
2022-11-26T17:43:01.348Z,91.38
2022-11-26T17:45:05.014Z,91.16
2022-11-26T17:47:17.239Z,91.77
2022-11-26T17:49:20.956Z,91.25
2022-11-26T17:51:25.687Z,91.00
2022-11-26T17:53:28.784Z,90.60
2022-11-26T17:55:32.110Z,90.61
2022-11-26T17:57:35.985Z,91.18
2022-11-26T17:59:39.367Z,91.04
2022-11-26T18:01:42.955Z,91.91
2022-11-26T18:03:46.646Z,91.87
2022-11-26T18:05:49.813Z,92.08
2022-11-26T18:07:54.278Z,91.93
2022-11-26T18:09:57.953Z,90.77
2022-11-26T18:12:01.627Z,91.92
2022-11-26T18:14:04.647Z,91.17
2022-11-26T18:16:07.926Z,90.62
2022-11-26T18:18:10.964Z,91.50
2022-11-26T18:20:14.353Z,91.73
2022-11-26T18:22:19.267Z,91.24
2022-11-26T18:24:23.960Z,92.34
2022-11-26T18:26:28.191Z,91.05
2022-11-26T18:28:31.328Z,91.49
2022-11-26T18:30:34.550Z,90.70
2022-11-26T18:32:38.500Z,91.26
2022-11-26T18:34:42.077Z,92.23
2022-11-26T18:36:49.438Z,92.41
2022-11-26T18:38:56.716Z,92.10
2022-11-26T18:41:03.706Z,91.38
2022-11-26T18:43:08.046Z,92.13
2022-11-26T18:45:13.382Z,91.43
2022-11-26T18:47:16.464Z,90.65
2022-11-26T18:49:19.582Z,91.13
2022-11-26T18:51:22.844Z,91.08
2022-11-26T18:53:26.919Z,91.72
2022-11-26T18:55:30.033Z,91.75
2022-11-26T18:57:34.500Z,92.60
2022-11-26T18:59:38.241Z,92.74
2022-11-26T19:01:42.155Z,92.91
2022-11-26T19:03:45.579Z,93.04
2022-11-26T19:05:50.496Z,92.60
2022-11-26T19:07:53.745Z,93.21
2022-11-26T19:09:56.885Z,93.38
2022-11-26T19:11:59.987Z,93.22
2022-11-26T19:14:04.533Z,93.46
2022-11-26T19:16:13.030Z,93.16
2022-11-26T19:18:19.470Z,92.47
2022-11-26T19:20:22.779Z,92.67
2022-11-26T19:22:26.896Z,93.02
2022-11-26T19:24:31.093Z,93.03
2022-11-26T19:26:34.345Z,92.58
2022-11-26T19:28:37.761Z,93.07
2022-11-26T19:30:42.556Z,92.95
2022-11-26T19:32:45.704Z,93.31
2022-11-26T19:34:48.827Z,93.00
2022-11-26T19:36:53.297Z,93.64
2022-11-26T19:38:56.972Z,93.53
2022-11-26T19:41:00.769Z,93.53
2022-11-26T19:43:03.811Z,93.15
2022-11-26T19:45:07.667Z,93.86
2022-11-26T19:47:12.518Z,94.19
2022-11-26T19:49:15.806Z,94.17
2022-11-26T19:51:20.745Z,93.49
2022-11-26T19:53:24.123Z,93.50
2022-11-26T19:55:27.679Z,93.15
2022-11-26T19:57:30.737Z,93.37
2022-11-26T19:59:34.091Z,92.36
2022-11-26T20:01:37.188Z,93.19
2022-11-26T20:03:41.879Z,93.30
2022-11-26T20:05:45.034Z,93.36
2022-11-26T20:07:48.273Z,93.10
2022-11-26T20:09:52.235Z,92.81
2022-11-26T20:11:56.499Z,92.83
2022-11-26T20:13:59.962Z,92.64
2022-11-26T20:16:06.743Z,92.38
2022-11-26T20:18:10.678Z,91.92
2022-11-26T20:20:15.418Z,92.52
2022-11-26T20:22:18.546Z,92.59
2022-11-26T20:24:21.553Z,92.77
2022-11-26T20:26:26.825Z,93.22
2022-11-26T20:28:29.911Z,93.25
2022-11-26T20:30:33.404Z,93.04
2022-11-26T20:32:37.019Z,92.73
2022-11-26T20:34:40.113Z,93.24
2022-11-26T20:36:44.783Z,92.68
2022-11-26T20:38:47.929Z,93.14
2022-11-26T20:40:51.225Z,93.42
2022-11-26T20:42:54.313Z,93.72
2022-11-26T20:44:57.444Z,93.25
2022-11-26T20:47:00.515Z,93.05
2022-11-26T20:49:04.988Z,93.68
2022-11-26T20:51:10.303Z,93.76
2022-11-26T20:53:14.782Z,93.25
2022-11-26T20:55:18.078Z,93.49
2022-11-26T20:57:23.335Z,93.30
2022-11-26T20:59:26.701Z,93.77
2022-11-26T21:01:31.580Z,92.98
2022-11-26T21:03:34.810Z,93.60
2022-11-26T21:05:37.966Z,94.37
2022-11-26T21:07:41.687Z,93.62
2022-11-26T21:09:47.014Z,94.42
2022-11-26T21:11:50.069Z,93.92
2022-11-26T21:13:53.252Z,94.42
2022-11-26T21:15:56.476Z,94.32
2022-11-26T21:17:59.562Z,93.50
2022-11-26T21:20:03.013Z,93.77
2022-11-26T21:22:06.096Z,94.13
2022-11-26T21:24:09.952Z,94.53
2022-11-26T21:26:17.651Z,93.79
2022-11-26T21:28:20.858Z,93.84
2022-11-26T21:30:24.170Z,92.74
2022-11-26T21:32:27.623Z,92.96
2022-11-26T21:34:30.870Z,93.40
2022-11-26T21:36:35.489Z,92.59
2022-11-26T21:38:39.046Z,91.52
2022-11-26T21:40:42.305Z,91.58
2022-11-26T21:42:46.721Z,92.59
2022-11-26T21:44:49.740Z,92.22
2022-11-26T21:46:52.865Z,93.77
2022-11-26T21:48:56.971Z,93.59
2022-11-26T21:51:00.165Z,92.59
2022-11-26T21:53:04.405Z,93.24
2022-11-26T21:55:10.682Z,93.13
2022-11-26T21:57:13.813Z,93.61
2022-11-26T21:59:18.328Z,94.16
2022-11-26T22:01:24.304Z,94.14
2022-11-26T22:03:27.566Z,93.71
2022-11-26T22:05:30.908Z,94.28
2022-11-26T22:07:34.775Z,94.77
2022-11-26T22:09:38.141Z,95.03
2022-11-26T22:11:42.522Z,94.18
2022-11-26T22:13:45.883Z,94.46
2022-11-26T22:15:50.460Z,93.62
2022-11-26T22:17:53.678Z,92.69
2022-11-26T22:19:56.736Z,92.42
2022-11-26T22:22:00.030Z,92.10
2022-11-26T22:24:04.057Z,92.27
2022-11-26T22:26:07.553Z,92.58
2022-11-26T22:28:10.631Z,92.50
2022-11-26T22:30:14.487Z,92.64
2022-11-26T22:32:18.972Z,92.92
2022-11-26T22:34:24.562Z,92.75
2022-11-26T22:36:28.026Z,92.54
2022-11-26T22:38:32.195Z,93.28
2022-11-26T22:40:35.184Z,93.35
2022-11-26T22:42:38.160Z,92.24
2022-11-26T22:44:41.269Z,93.63
2022-11-26T22:46:44.615Z,92.09
2022-11-26T22:48:51.537Z,93.05
2022-11-26T22:50:55.817Z,92.69
2022-11-26T22:52:58.883Z,92.53
2022-11-26T22:55:01.944Z,93.12
2022-11-26T22:57:05.208Z,92.85
2022-11-26T22:59:10.247Z,92.93
2022-11-26T23:01:17.047Z,93.02
2022-11-26T23:03:21.056Z,92.56
2022-11-26T23:05:25.643Z,92.06
2022-11-26T23:07:29.111Z,93.75
2022-11-26T23:09:32.104Z,92.61
2022-11-26T23:11:36.339Z,93.31
2022-11-26T23:13:41.322Z,93.76
2022-11-26T23:15:46.032Z,92.89
2022-11-26T23:17:49.405Z,93.01
2022-11-26T23:19:52.417Z,93.08
2022-11-26T23:21:56.950Z,93.02
2022-11-26T23:24:00.207Z,93.43
2022-11-26T23:26:03.958Z,94.12
2022-11-26T23:28:07.607Z,93.06
2022-11-26T23:30:11.786Z,93.15
2022-11-26T23:32:14.940Z,94.03
2022-11-26T23:34:18.023Z,93.73
2022-11-26T23:36:21.913Z,92.67
2022-11-26T23:38:26.557Z,92.94
2022-11-26T23:40:29.623Z,92.76
2022-11-26T23:42:32.644Z,93.16
2022-11-26T23:44:35.774Z,92.23
2022-11-26T23:46:38.976Z,92.65
2022-11-26T23:48:42.361Z,92.62
2022-11-26T23:50:45.502Z,92.98
2022-11-26T23:52:48.621Z,92.43
2022-11-26T23:54:53.082Z,93.58
2022-11-26T23:56:56.332Z,93.16
2022-11-26T23:59:01.585Z,93.79
